createdAt,value
2017-09-11T00:00:03.297Z,91.23
2017-09-11T00:01:03.320Z,91.09
2017-09-11T00:02:03.451Z,90.94
2017-09-11T00:03:02.586Z,91.04
2017-09-11T00:04:01.968Z,91.17
2017-09-11T00:05:02.725Z,90.83
2017-09-11T00:06:02.074Z,91.30
2017-09-11T00:07:02.137Z,91.36
2017-09-11T00:08:02.083Z,91.95
2017-09-11T00:09:02.024Z,91.25
2017-09-11T00:10:02.095Z,90.98
2017-09-11T00:11:02.194Z,92.18
2017-09-11T00:12:02.084Z,92.14
2017-09-11T00:13:02.098Z,91.36
2017-09-11T00:14:02.020Z,91.30
2017-09-11T00:15:02.041Z,91.02
2017-09-11T00:16:02.070Z,90.87
2017-09-11T00:17:03.398Z,91.31
2017-09-11T00:18:02.653Z,90.89
2017-09-11T00:19:03.350Z,90.51
2017-09-11T00:20:02.683Z,90.21
2017-09-11T00:21:02.037Z,90.14
2017-09-11T00:22:02.119Z,90.56
2017-09-11T00:23:02.077Z,90.74
2017-09-11T00:24:02.127Z,90.62
2017-09-11T00:25:02.106Z,91.09
2017-09-11T00:26:02.093Z,91.16
2017-09-11T00:27:02.081Z,91.29
2017-09-11T00:28:02.084Z,91.44
2017-09-11T00:29:02.090Z,92.08
2017-09-11T00:30:02.126Z,91.90
2017-09-11T00:31:02.117Z,92.73
2017-09-11T00:32:02.079Z,91.63
2017-09-11T00:33:03.297Z,91.38
2017-09-11T00:34:03.376Z,91.59
2017-09-11T00:35:02.760Z,91.76
2017-09-11T00:36:02.102Z,92.03
2017-09-11T00:37:02.171Z,91.63
2017-09-11T00:38:02.116Z,91.86
2017-09-11T00:39:02.144Z,92.24
2017-09-11T00:40:02.115Z,91.36
2017-09-11T00:41:02.023Z,91.96
2017-09-11T00:42:02.167Z,91.49
2017-09-11T00:43:02.202Z,91.42
2017-09-11T00:44:02.130Z,91.51
2017-09-11T00:45:02.114Z,91.67
2017-09-11T00:46:02.190Z,91.38
2017-09-11T00:47:02.190Z,91.01
2017-09-11T00:48:02.173Z,90.88
2017-09-11T00:49:03.479Z,91.76
2017-09-11T00:50:03.486Z,90.47
2017-09-11T00:51:02.777Z,91.04
2017-09-11T00:52:02.865Z,90.93
2017-09-11T00:53:02.207Z,90.79
2017-09-11T00:54:02.128Z,90.79
2017-09-11T00:55:02.160Z,90.88
2017-09-11T00:56:02.128Z,91.17
2017-09-11T00:57:02.164Z,91.03
2017-09-11T00:58:02.216Z,90.77
2017-09-11T00:59:02.192Z,90.60
2017-09-11T01:00:02.244Z,90.01
2017-09-11T01:03:16.387Z,90.06
2017-09-11T01:03:18.126Z,90.31
2017-09-11T01:03:19.149Z,89.85
2017-09-11T01:05:51.939Z,89.49
2017-09-11T01:05:53.288Z,89.90
2017-09-11T01:06:02.284Z,90.22
2017-09-11T01:08:34.129Z,90.78
2017-09-11T01:08:35.360Z,90.15
2017-09-11T01:09:02.255Z,89.97
2017-09-11T01:11:46.914Z,89.93
2017-09-11T01:11:48.858Z,90.09
2017-09-11T01:14:33.080Z,90.57
2017-09-11T01:14:34.711Z,90.62
2017-09-11T01:14:36.060Z,90.51
2017-09-11T01:15:02.273Z,90.50
2017-09-11T01:17:47.893Z,90.66
2017-09-11T01:17:49.008Z,90.39
2017-09-11T01:18:02.311Z,90.40
2017-09-11T01:21:20.237Z,90.10
2017-09-11T01:21:21.362Z,90.33
2017-09-11T01:21:22.479Z,90.52
2017-09-11T01:22:02.303Z,90.65
2017-09-11T01:23:03.459Z,90.73
2017-09-11T01:24:02.211Z,91.08
2017-09-11T01:27:05.216Z,90.91
2017-09-11T01:27:06.342Z,90.74
2017-09-11T01:27:07.360Z,90.76
2017-09-11T01:29:46.965Z,90.75
2017-09-11T01:29:48.797Z,90.89
2017-09-11T01:30:02.266Z,91.11
2017-09-11T01:32:33.910Z,90.96
2017-09-11T01:32:35.033Z,91.04
2017-09-11T01:33:02.342Z,91.24
2017-09-11T01:35:45.807Z,90.72
2017-09-11T01:35:47.032Z,91.37
2017-09-11T01:38:31.333Z,91.36
2017-09-11T01:38:32.250Z,91.97
2017-09-11T01:38:33.580Z,91.70
2017-09-11T01:39:02.306Z,91.74
2017-09-11T01:41:44.070Z,91.83
2017-09-11T01:41:45.909Z,91.73
2017-09-11T01:42:02.406Z,91.40
2017-09-11T01:45:09.815Z,91.62
2017-09-11T01:45:10.936Z,91.20
2017-09-11T01:45:11.951Z,91.10
2017-09-11T01:47:51.877Z,91.05
2017-09-11T01:47:53.014Z,91.09
2017-09-11T01:50:31.072Z,91.58
2017-09-11T01:50:31.987Z,91.23
2017-09-11T01:50:33.516Z,91.78
2017-09-11T01:51:02.393Z,91.54
2017-09-11T01:53:48.827Z,92.06
2017-09-11T01:53:50.686Z,92.13
2017-09-11T01:56:32.227Z,92.29
2017-09-11T01:56:33.146Z,92.24
2017-09-11T01:56:34.485Z,91.82
2017-09-11T01:57:02.337Z,92.17
2017-09-11T01:59:50.841Z,91.39
2017-09-11T01:59:52.064Z,91.72
2017-09-11T02:00:02.448Z,91.84
2017-09-11T02:01:03.014Z,91.44
2017-09-11T02:02:03.030Z,91.38
2017-09-11T02:03:03.032Z,91.24
2017-09-11T02:04:03.076Z,91.74
2017-09-11T02:05:02.987Z,92.13
2017-09-11T02:06:03.011Z,90.92
2017-09-11T02:07:03.630Z,91.23
2017-09-11T02:08:03.669Z,91.36
2017-09-11T02:09:03.665Z,91.29
2017-09-11T02:10:03.727Z,91.14
2017-09-11T02:11:03.756Z,92.18
2017-09-11T02:12:03.076Z,92.44
2017-09-11T02:13:03.112Z,92.45
2017-09-11T02:14:02.436Z,92.05
2017-09-11T02:15:02.456Z,92.50
2017-09-11T02:16:02.454Z,92.63
2017-09-11T02:17:02.548Z,91.81
2017-09-11T02:18:02.489Z,92.85
2017-09-11T02:19:02.451Z,92.74
2017-09-11T02:20:02.545Z,92.48
2017-09-11T02:21:02.567Z,92.30
2017-09-11T02:22:02.494Z,92.16
2017-09-11T02:23:02.426Z,91.87
2017-09-11T02:24:02.620Z,90.90
2017-09-11T02:25:02.494Z,91.90
2017-09-11T02:26:03.713Z,91.45
2017-09-11T02:27:03.731Z,91.51
2017-09-11T02:28:03.128Z,91.44
2017-09-11T02:29:03.101Z,91.35
2017-09-11T02:30:03.153Z,91.29
2017-09-11T02:31:02.467Z,91.34
2017-09-11T02:32:02.511Z,91.19
2017-09-11T02:33:02.568Z,91.39
2017-09-11T02:34:02.535Z,91.62
2017-09-11T02:35:02.480Z,91.26
2017-09-11T02:36:02.522Z,91.72
2017-09-11T02:37:02.497Z,91.64
2017-09-11T02:38:02.542Z,91.56
2017-09-11T02:39:02.486Z,90.61
2017-09-11T02:40:02.514Z,91.64
2017-09-11T02:41:02.575Z,91.19
2017-09-11T02:42:02.508Z,91.02
2017-09-11T02:43:03.721Z,91.17
2017-09-11T02:44:03.143Z,91.32
2017-09-11T02:45:03.252Z,91.48
2017-09-11T02:46:03.214Z,91.45
2017-09-11T02:47:02.547Z,91.43
2017-09-11T02:48:02.585Z,91.01
2017-09-11T02:49:02.596Z,91.15
2017-09-11T02:50:02.612Z,91.07
2017-09-11T02:51:02.531Z,91.25
2017-09-11T02:52:02.559Z,91.31
2017-09-11T02:53:02.572Z,91.21
2017-09-11T02:54:02.633Z,91.04
2017-09-11T02:55:02.563Z,91.64
2017-09-11T02:56:02.656Z,91.59
2017-09-11T02:57:02.557Z,92.95
2017-09-11T02:58:03.862Z,91.90
2017-09-11T02:59:03.948Z,91.66
2017-09-11T03:00:03.296Z,91.41
2017-09-11T03:01:02.579Z,91.24
2017-09-11T03:02:02.628Z,91.40
2017-09-11T03:03:02.623Z,91.88
2017-09-11T03:04:02.649Z,91.84
2017-09-11T03:05:02.670Z,91.14
2017-09-11T03:06:02.621Z,91.37
2017-09-11T03:07:02.655Z,91.38
2017-09-11T03:08:02.627Z,92.08
2017-09-11T03:09:02.655Z,91.70
2017-09-11T03:10:02.671Z,91.16
2017-09-11T03:11:02.594Z,90.87
2017-09-11T03:12:02.608Z,91.18
2017-09-11T03:13:02.685Z,90.69
2017-09-11T03:14:02.601Z,90.68
2017-09-11T03:15:03.864Z,91.45
2017-09-11T03:16:03.363Z,92.21
2017-09-11T03:17:02.610Z,91.77
2017-09-11T03:18:02.681Z,91.29
2017-09-11T03:19:02.666Z,91.76
2017-09-11T03:20:02.657Z,91.95
2017-09-11T03:21:02.899Z,91.85
2017-09-11T03:22:02.662Z,92.15
2017-09-11T03:23:02.657Z,92.46
2017-09-11T03:24:02.671Z,92.22
2017-09-11T03:25:02.783Z,92.73
2017-09-11T03:26:02.644Z,92.28
2017-09-11T03:26:44.751Z,92.28
2017-09-11T03:28:55.896Z,91.90
2017-09-11T03:28:57.737Z,92.68
2017-09-11T03:29:02.673Z,92.21
2017-09-11T03:30:04.063Z,91.58
2017-09-11T03:31:03.903Z,91.67
2017-09-11T03:32:03.943Z,93.04
2017-09-11T03:33:03.352Z,92.89
2017-09-11T03:34:02.695Z,92.25
2017-09-11T03:35:02.704Z,92.89
2017-09-11T03:36:02.753Z,92.91
2017-09-11T03:37:02.714Z,93.60
2017-09-11T03:38:02.689Z,94.01
2017-09-11T03:39:02.742Z,93.49
2017-09-11T03:40:02.781Z,93.40
2017-09-11T03:41:02.784Z,93.45
2017-09-11T03:42:02.793Z,93.18
2017-09-11T03:43:02.804Z,93.17
2017-09-11T03:44:02.805Z,92.50
2017-09-11T03:45:02.725Z,92.69
2017-09-11T03:46:04.049Z,92.28
2017-09-11T03:47:04.043Z,92.61
2017-09-11T03:48:04.041Z,92.04
2017-09-11T03:49:03.400Z,92.43
2017-09-11T03:50:02.776Z,92.48
2017-09-11T03:51:02.758Z,92.75
2017-09-11T03:52:02.899Z,92.73
2017-09-11T03:53:02.772Z,92.81
2017-09-11T03:54:02.778Z,92.55
2017-09-11T03:55:02.800Z,92.43
2017-09-11T03:56:02.791Z,92.52
2017-09-11T03:57:02.797Z,92.84
2017-09-11T03:58:02.775Z,92.82
2017-09-11T03:59:02.772Z,92.38
2017-09-11T04:00:02.819Z,92.94
2017-09-11T04:01:02.822Z,92.49
2017-09-11T04:02:02.802Z,92.31
2017-09-11T04:03:02.806Z,92.58
2017-09-11T04:04:04.155Z,92.41
2017-09-11T04:05:03.476Z,92.95
2017-09-11T04:06:02.789Z,92.55
2017-09-11T04:07:02.850Z,93.19
2017-09-11T04:08:02.915Z,93.46
2017-09-11T04:09:02.812Z,92.76
2017-09-11T04:10:03.060Z,92.46
2017-09-11T04:11:02.863Z,92.47
2017-09-11T04:12:02.873Z,93.00
2017-09-11T04:13:02.849Z,92.72
2017-09-11T04:14:02.804Z,92.23
2017-09-11T04:15:02.833Z,93.20
2017-09-11T04:16:02.836Z,92.29
2017-09-11T04:17:02.823Z,92.81
2017-09-11T04:18:03.643Z,92.46
2017-09-11T04:19:04.262Z,92.24
2017-09-11T04:20:03.652Z,93.29
2017-09-11T04:21:03.609Z,93.49
2017-09-11T04:22:02.851Z,93.18
2017-09-11T04:23:02.884Z,92.88
2017-09-11T04:24:02.869Z,92.42
2017-09-11T04:25:02.828Z,92.36
2017-09-11T04:26:05.361Z,93.00
2017-09-11T04:27:02.890Z,93.67
2017-09-11T04:28:03.610Z,93.12
2017-09-11T04:29:03.529Z,92.76
2017-09-11T04:30:03.663Z,92.20
2017-09-11T04:31:03.472Z,92.85
2017-09-11T04:32:04.116Z,92.40
2017-09-11T04:33:04.133Z,93.83
2017-09-11T04:34:04.129Z,93.59
2017-09-11T04:35:03.748Z,93.47
2017-09-11T04:36:04.246Z,93.05
2017-09-11T04:37:04.439Z,93.14
2017-09-11T04:38:03.610Z,93.64
2017-09-11T04:39:03.661Z,93.79
2017-09-11T04:40:02.936Z,93.03
2017-09-11T04:41:02.967Z,95.47
2017-09-11T04:42:03.028Z,93.50
2017-09-11T04:43:02.999Z,92.24
2017-09-11T04:44:02.987Z,92.60
2017-09-11T04:45:03.010Z,92.00
2017-09-11T04:46:02.918Z,92.64
2017-09-11T04:47:02.933Z,92.42
2017-09-11T04:48:02.965Z,92.45
2017-09-11T04:49:02.978Z,93.33
2017-09-11T04:50:03.016Z,92.73
2017-09-11T04:51:02.924Z,92.93
2017-09-11T04:52:04.311Z,93.64
2017-09-11T04:53:04.252Z,94.17
2017-09-11T04:54:03.672Z,93.89
2017-09-11T04:55:02.972Z,92.98
2017-09-11T04:56:03.040Z,93.79
2017-09-11T04:57:02.937Z,94.30
2017-09-11T04:58:03.021Z,94.13
2017-09-11T04:59:02.955Z,93.92
2017-09-11T05:00:03.056Z,94.07
2017-09-11T05:01:02.997Z,93.72
2017-09-11T05:02:03.051Z,93.67
2017-09-11T05:03:03.064Z,93.13
2017-09-11T05:04:03.060Z,92.95
2017-09-11T05:05:03.006Z,92.27
2017-09-11T05:06:02.977Z,92.19
2017-09-11T05:07:03.122Z,92.27
2017-09-11T05:08:02.997Z,91.15
2017-09-11T05:09:03.046Z,90.86
2017-09-11T05:10:04.407Z,91.09
2017-09-11T05:11:03.691Z,90.99
2017-09-11T05:12:04.122Z,90.40
2017-09-11T05:13:03.076Z,90.47
2017-09-11T05:14:03.103Z,90.21
2017-09-11T05:15:03.041Z,90.03
2017-09-11T05:16:03.104Z,88.68
2017-09-11T05:17:03.111Z,89.06
2017-09-11T05:18:03.106Z,89.28
2017-09-11T05:19:03.113Z,88.32
2017-09-11T05:20:03.064Z,88.00
2017-09-11T05:21:03.120Z,87.97
2017-09-11T05:22:03.160Z,87.96
2017-09-11T05:23:03.075Z,87.09
2017-09-11T05:24:04.387Z,87.20
2017-09-11T05:25:03.660Z,87.30
2017-09-11T05:26:04.471Z,87.22
2017-09-11T05:27:03.729Z,86.78
2017-09-11T05:28:03.169Z,86.54
2017-09-11T05:29:03.098Z,86.27
2017-09-11T05:30:03.275Z,85.87
2017-09-11T05:31:03.070Z,85.66
2017-09-11T05:32:03.146Z,84.97
2017-09-11T05:33:03.100Z,84.45
2017-09-11T05:34:03.182Z,86.00
2017-09-11T05:35:03.098Z,85.04
2017-09-11T05:36:03.138Z,87.14
2017-09-11T05:37:03.172Z,86.21
2017-09-11T05:38:03.153Z,87.80
2017-09-11T05:39:03.598Z,87.02
2017-09-11T05:40:04.585Z,87.39
2017-09-11T05:41:03.176Z,86.77
2017-09-11T05:42:04.595Z,86.26
2017-09-11T05:43:03.806Z,87.71
2017-09-11T05:44:03.163Z,87.45
2017-09-11T05:45:03.114Z,86.62
2017-09-11T05:46:04.170Z,86.73
2017-09-11T05:47:03.255Z,86.33
2017-09-11T05:48:03.174Z,87.93
2017-09-11T05:49:03.218Z,86.82
2017-09-11T05:50:03.298Z,85.75
2017-09-11T05:51:03.147Z,86.31
2017-09-11T05:52:03.293Z,86.15
2017-09-11T05:53:03.064Z,87.39
2017-09-11T05:54:03.151Z,85.66
2017-09-11T05:55:03.538Z,86.98
2017-09-11T05:56:03.138Z,86.49
2017-09-11T05:57:04.693Z,87.36
2017-09-11T05:58:04.486Z,86.41
2017-09-11T05:59:03.806Z,87.22
2017-09-11T06:00:03.929Z,86.95
2017-09-11T06:01:03.111Z,86.53
2017-09-11T06:02:03.251Z,86.16
2017-09-11T06:03:03.305Z,86.28
2017-09-11T06:04:03.250Z,86.86
2017-09-11T06:05:03.232Z,87.03
2017-09-11T06:06:03.301Z,84.96
2017-09-11T06:07:03.251Z,85.56
2017-09-11T06:08:03.191Z,86.12
2017-09-11T06:09:03.281Z,85.98
2017-09-11T06:10:03.638Z,85.77
2017-09-11T06:11:03.277Z,84.91
2017-09-11T06:12:03.241Z,83.72
2017-09-11T06:13:04.730Z,82.94
2017-09-11T06:14:04.565Z,82.43
2017-09-11T06:15:04.086Z,82.14
2017-09-11T11:47:02.982Z,75.22
2017-09-11T11:47:04.207Z,75.37
2017-09-11T11:48:04.793Z,74.96
2017-09-11T11:49:04.983Z,76.19
2017-09-11T11:50:05.852Z,75.70
2017-09-11T11:51:04.659Z,77.04
2017-09-11T11:52:04.438Z,75.35
2017-09-11T11:53:04.380Z,75.51
2017-09-11T11:54:04.397Z,75.51
2017-09-11T11:55:04.425Z,75.49
2017-09-11T11:56:04.384Z,75.21
2017-09-11T11:57:04.394Z,75.92
2017-09-11T11:58:04.451Z,75.89
2017-09-11T11:59:05.757Z,75.87
2017-09-11T12:00:05.035Z,76.34
2017-09-11T12:01:04.379Z,76.01
2017-09-11T12:02:04.415Z,75.81
2017-09-11T12:03:05.188Z,75.72
2017-09-11T12:04:04.449Z,75.34
2017-09-11T12:05:04.438Z,75.79
2017-09-11T12:06:04.454Z,75.83
2017-09-11T12:07:04.374Z,76.87
2017-09-11T12:08:04.441Z,77.14
2017-09-11T12:09:04.697Z,77.14
2017-09-11T12:10:04.399Z,78.04
2017-09-11T12:11:04.508Z,78.09
2017-09-11T12:12:04.580Z,79.05
2017-09-11T12:13:04.465Z,79.48
2017-09-11T12:14:04.453Z,79.92
2017-09-11T12:15:05.441Z,80.06
2017-09-11T12:16:05.080Z,80.09
2017-09-11T12:17:04.324Z,80.94
2017-09-11T12:18:04.404Z,79.99
2017-09-11T12:19:04.466Z,78.98
2017-09-11T12:20:04.464Z,80.40
2017-09-11T12:21:04.445Z,80.61
2017-09-11T12:22:04.457Z,77.91
2017-09-11T12:23:04.504Z,80.04
2017-09-11T12:24:04.465Z,80.74
2017-09-11T12:25:04.481Z,79.86
2017-09-11T12:26:04.503Z,80.66
2017-09-11T12:27:04.447Z,81.04
2017-09-11T12:28:04.417Z,80.14
2017-09-11T12:29:04.536Z,80.45
2017-09-11T12:30:04.489Z,79.44
2017-09-11T12:31:05.987Z,79.37
2017-09-11T12:32:05.210Z,79.54
2017-09-11T12:33:04.450Z,79.82
2017-09-11T12:34:04.473Z,79.10
2017-09-11T12:35:05.232Z,78.57
2017-09-11T12:36:04.490Z,77.06
2017-09-11T12:37:04.564Z,76.68
2017-09-11T12:38:04.495Z,76.69
2017-09-11T12:39:04.527Z,78.12
2017-09-11T12:40:04.525Z,76.53
2017-09-11T12:41:04.540Z,76.08
2017-09-11T12:42:04.565Z,77.21
2017-09-11T12:43:04.580Z,77.50
2017-09-11T12:44:04.627Z,78.49
2017-09-11T12:45:04.489Z,78.20
2017-09-11T12:46:04.553Z,77.91
2017-09-11T12:47:04.607Z,76.89
2017-09-11T12:48:04.613Z,76.94
2017-09-11T12:49:04.571Z,78.03
2017-09-11T12:50:04.677Z,78.51
2017-09-11T12:51:05.183Z,76.30
2017-09-11T12:52:04.566Z,76.83
2017-09-11T12:53:04.539Z,76.53
2017-09-11T12:54:04.690Z,78.83
2017-09-11T12:55:04.581Z,77.17
2017-09-11T12:56:04.548Z,77.52
2017-09-11T12:57:04.580Z,76.16
2017-09-11T12:58:04.610Z,75.29
2017-09-11T12:59:04.637Z,76.60
2017-09-11T13:00:04.622Z,76.53
2017-09-11T13:01:04.660Z,75.57
2017-09-11T13:02:04.569Z,75.85
2017-09-11T13:03:04.597Z,76.71
2017-09-11T13:04:05.889Z,76.71
2017-09-11T13:05:05.240Z,76.40
2017-09-11T13:06:05.351Z,77.38
2017-09-11T13:07:04.577Z,76.26
2017-09-11T13:08:06.919Z,76.09
2017-09-11T13:09:04.804Z,75.95
2017-09-11T13:10:05.250Z,75.02
2017-09-11T13:11:05.945Z,75.67
2017-09-11T13:12:04.647Z,76.30
2017-09-11T13:13:04.654Z,74.65
2017-09-11T13:14:04.665Z,75.97
2017-09-11T13:15:04.658Z,77.88
2017-09-11T13:16:04.712Z,73.46
2017-09-11T13:17:04.647Z,75.25
2017-09-11T13:18:04.694Z,74.53
2017-09-11T13:19:04.654Z,75.71
2017-09-11T13:20:06.003Z,74.59
2017-09-11T13:21:06.261Z,74.30
2017-09-11T13:22:06.018Z,74.35
2017-09-11T13:23:05.301Z,75.25
2017-09-11T13:24:05.318Z,71.92
2017-09-11T13:25:04.700Z,74.10
2017-09-11T13:26:04.568Z,74.04
2017-09-11T13:27:04.673Z,73.36
2017-09-11T13:28:04.809Z,72.35
2017-09-11T13:29:04.662Z,74.16
2017-09-11T13:30:05.019Z,74.48
2017-09-11T13:31:04.730Z,73.24
2017-09-11T13:32:04.700Z,72.99
2017-09-11T13:33:04.737Z,72.99
2017-09-11T13:34:04.739Z,74.35
2017-09-11T13:35:04.729Z,73.49
2017-09-11T13:36:04.760Z,74.19
2017-09-11T13:37:04.752Z,75.12
2017-09-11T13:38:05.982Z,75.59
2017-09-11T13:39:06.000Z,76.56
2017-09-11T13:40:05.440Z,76.23
2017-09-11T13:41:04.680Z,76.87
2017-09-11T13:42:05.804Z,75.00
2017-09-11T13:43:04.736Z,75.68
2017-09-11T13:44:04.726Z,75.78
2017-09-11T13:45:04.726Z,75.29
2017-09-11T13:46:04.885Z,74.25
2017-09-11T13:47:04.742Z,74.71
2017-09-11T13:48:04.759Z,75.85
2017-09-11T13:49:04.758Z,75.81
2017-09-11T13:50:04.717Z,76.32
2017-09-11T13:51:04.753Z,75.01
2017-09-11T13:52:04.807Z,76.43
2017-09-11T13:53:04.748Z,75.92
2017-09-11T13:54:06.007Z,73.48
2017-09-11T13:55:06.022Z,74.62
2017-09-11T13:56:05.381Z,73.91
2017-09-11T13:57:06.126Z,73.94
2017-09-11T13:58:04.867Z,71.44
2017-09-11T13:59:04.637Z,73.74
2017-09-11T14:00:06.178Z,72.42
2017-09-11T14:01:04.865Z,72.14
2017-09-11T14:02:04.821Z,72.64
2017-09-11T14:03:04.797Z,71.79
2017-09-11T14:04:04.829Z,71.03
2017-09-11T14:05:04.835Z,70.30
2017-09-11T14:06:05.205Z,70.41
2017-09-11T14:07:04.850Z,73.04
2017-09-11T14:08:04.877Z,72.67
2017-09-11T14:09:04.893Z,73.55
2017-09-11T14:10:04.914Z,74.26
2017-09-11T14:11:04.923Z,74.20
2017-09-11T14:12:04.989Z,74.20
2017-09-11T14:13:04.938Z,71.67
2017-09-11T14:14:06.140Z,70.86
2017-09-11T14:15:06.597Z,70.70
2017-09-11T14:16:04.903Z,72.63
2017-09-11T14:17:05.031Z,73.03
2017-09-11T14:18:04.981Z,72.20
2017-09-11T14:19:04.907Z,72.51
2017-09-11T14:20:04.910Z,72.11
2017-09-11T14:21:06.749Z,72.15
2017-09-11T14:22:06.612Z,72.98
2017-09-11T14:23:05.381Z,72.83
2017-09-11T14:24:05.408Z,73.69
2017-09-11T14:25:05.432Z,71.89
2017-09-11T14:26:04.926Z,74.38
2017-09-11T14:27:06.104Z,73.32
2017-09-11T14:28:06.111Z,73.45
2017-09-11T14:29:05.568Z,72.19
2017-09-11T14:30:05.563Z,72.21
2017-09-11T14:31:04.893Z,73.87
2017-09-11T14:32:04.919Z,74.01
2017-09-11T14:33:05.015Z,71.59
2017-09-11T14:34:04.921Z,71.70
2017-09-11T14:35:04.939Z,70.73
2017-09-11T14:36:04.936Z,72.17
2017-09-11T14:37:04.985Z,73.03
2017-09-11T14:38:04.880Z,71.65
2017-09-11T14:39:04.972Z,72.48
2017-09-11T14:40:04.966Z,70.60
2017-09-11T14:41:04.951Z,71.67
2017-09-11T14:42:04.916Z,71.90
2017-09-11T14:43:06.110Z,71.13
2017-09-11T14:44:06.172Z,72.08
2017-09-11T14:45:06.172Z,71.12
2017-09-11T14:46:05.578Z,72.30
2017-09-11T14:47:05.764Z,71.83
2017-09-11T14:48:04.924Z,71.26
2017-09-11T14:49:04.999Z,71.77
2017-09-11T14:50:04.930Z,71.99
2017-09-11T14:51:04.979Z,72.97
2017-09-11T14:52:05.068Z,73.43
2017-09-11T14:53:04.988Z,73.40
2017-09-11T14:54:05.078Z,73.39
2017-09-11T14:55:05.011Z,73.71
2017-09-11T14:56:05.033Z,74.04
2017-09-11T14:57:04.962Z,73.66
2017-09-11T14:58:05.046Z,73.71
2017-09-11T14:59:04.984Z,74.00
2017-09-11T15:00:06.366Z,74.44
2017-09-11T15:01:05.487Z,74.98
2017-09-11T15:02:05.687Z,74.92
2017-09-11T15:03:05.933Z,73.64
2017-09-11T15:04:05.718Z,73.93
2017-09-11T15:05:05.029Z,74.46
2017-09-11T15:06:05.043Z,74.06
2017-09-11T15:07:05.091Z,74.53
2017-09-11T15:08:05.012Z,74.62
2017-09-11T15:09:05.024Z,74.06
2017-09-11T15:10:05.009Z,74.16
2017-09-11T15:11:05.063Z,75.44
2017-09-11T15:12:05.028Z,74.84
2017-09-11T15:13:06.720Z,74.84
2017-09-11T15:14:05.080Z,75.03
2017-09-11T15:15:05.102Z,74.96
2017-09-11T15:16:05.016Z,74.72
2017-09-11T15:17:05.029Z,75.81
2017-09-11T15:18:05.104Z,76.36
2017-09-11T15:19:06.379Z,75.87
2017-09-11T15:20:05.705Z,75.23
2017-09-11T15:21:05.032Z,74.60
2017-09-11T15:22:05.090Z,74.44
2017-09-11T15:23:05.089Z,73.96
2017-09-11T15:24:05.068Z,74.54
2017-09-11T15:25:05.086Z,73.79
2017-09-11T15:26:05.101Z,74.57
2017-09-11T15:27:05.083Z,73.45
2017-09-11T15:28:05.059Z,73.47
2017-09-11T15:29:05.137Z,74.80
2017-09-11T15:30:05.118Z,75.06
2017-09-11T15:31:05.109Z,75.82
2017-09-11T15:32:05.057Z,74.13
2017-09-11T15:33:05.097Z,75.81
2017-09-11T15:34:06.344Z,75.11
2017-09-11T15:35:05.834Z,75.00
2017-09-11T15:36:05.739Z,75.50
2017-09-11T15:37:05.751Z,75.91
2017-09-11T15:38:05.082Z,75.79
2017-09-11T15:39:05.160Z,77.00
2017-09-11T15:40:05.139Z,74.04
2017-09-11T15:41:05.241Z,74.07
2017-09-11T15:42:05.111Z,74.47
2017-09-11T15:43:05.074Z,75.48
2017-09-11T15:44:05.162Z,75.38
2017-09-11T15:45:05.357Z,75.92
2017-09-11T15:46:05.077Z,76.74
2017-09-11T15:47:05.211Z,76.36
2017-09-11T15:48:05.141Z,75.80
2017-09-11T15:49:05.195Z,76.03
2017-09-11T15:50:05.123Z,75.99
2017-09-11T15:51:06.425Z,75.64
2017-09-11T15:52:05.745Z,76.24
2017-09-11T15:53:05.767Z,76.18
2017-09-11T15:54:05.164Z,76.83
2017-09-11T15:55:05.872Z,77.18
2017-09-11T15:56:05.181Z,76.62
2017-09-11T15:57:05.237Z,76.32
2017-09-11T15:58:05.191Z,75.75
2017-09-11T15:59:05.150Z,75.49
2017-09-11T16:00:05.200Z,76.25
2017-09-11T16:01:05.154Z,75.40
2017-09-11T16:02:05.200Z,75.35
2017-09-11T16:03:05.173Z,76.03
2017-09-11T16:04:05.249Z,75.58
2017-09-11T16:05:05.217Z,75.00
2017-09-11T16:06:05.187Z,75.79
2017-09-11T16:07:05.263Z,74.40
2017-09-11T16:08:05.241Z,75.09
2017-09-11T16:09:06.793Z,75.67
2017-09-11T16:10:05.866Z,76.64
2017-09-11T16:11:05.207Z,76.48
2017-09-11T16:12:05.200Z,76.26
2017-09-11T16:13:05.235Z,78.04
2017-09-11T16:14:05.259Z,76.79
2017-09-11T16:15:05.218Z,76.55
2017-09-11T16:16:05.218Z,76.99
2017-09-11T16:17:05.307Z,77.28
2017-09-11T16:18:05.312Z,76.90
2017-09-11T16:19:05.286Z,76.93
2017-09-11T16:20:05.398Z,77.69
2017-09-11T16:21:05.450Z,76.97
2017-09-11T16:22:05.250Z,77.18
2017-09-11T16:23:05.666Z,76.95
2017-09-11T16:24:05.444Z,76.98
2017-09-11T16:25:05.271Z,77.40
2017-09-11T16:26:05.323Z,78.08
2017-09-11T16:27:06.249Z,77.64
2017-09-11T16:28:06.140Z,76.66
2017-09-11T16:29:06.280Z,76.62
2017-09-11T16:30:06.319Z,77.13
2017-09-11T16:31:06.210Z,77.58
2017-09-11T16:32:05.297Z,78.09
2017-09-11T16:33:05.485Z,77.67
2017-09-11T16:34:05.301Z,79.27
2017-09-11T16:35:05.739Z,78.00
2017-09-11T16:36:05.447Z,78.35
2017-09-11T16:37:05.377Z,78.41
2017-09-11T16:38:05.353Z,78.40
2017-09-11T16:39:05.543Z,78.66
2017-09-11T16:40:05.346Z,77.77
2017-09-11T16:41:05.460Z,78.17
2017-09-11T16:42:05.484Z,77.91
2017-09-11T16:43:05.451Z,77.85
2017-09-11T16:44:06.730Z,77.76
2017-09-11T16:45:06.072Z,77.23
2017-09-11T16:46:05.380Z,78.06
2017-09-11T16:47:05.372Z,76.67
2017-09-11T16:48:05.375Z,77.55
2017-09-11T16:49:05.346Z,76.54
2017-09-11T16:50:05.351Z,76.42
2017-09-11T16:51:05.423Z,76.02
2017-09-11T16:52:05.365Z,76.70
2017-09-11T16:53:05.354Z,78.46
2017-09-11T16:54:05.418Z,79.54
2017-09-11T16:55:05.403Z,80.55
2017-09-11T16:56:05.404Z,79.42
2017-09-11T16:57:05.386Z,78.34
2017-09-11T16:58:05.433Z,77.68
2017-09-11T16:59:06.617Z,78.24
2017-09-11T17:00:06.802Z,77.92
2017-09-11T17:01:05.386Z,77.66
2017-09-11T17:02:05.415Z,78.43
2017-09-11T17:03:05.432Z,79.53
2017-09-11T17:04:05.420Z,79.69
2017-09-11T17:05:05.421Z,80.28
2017-09-11T17:06:05.421Z,80.88
2017-09-11T17:07:05.500Z,81.05
2017-09-11T17:08:05.376Z,81.15
2017-09-11T17:09:05.416Z,80.92
2017-09-11T17:10:05.480Z,79.92
2017-09-11T17:11:05.473Z,79.89
2017-09-11T17:12:05.425Z,78.50
2017-09-11T17:13:05.448Z,79.00
2017-09-11T17:14:05.493Z,79.84
2017-09-11T17:15:05.412Z,79.94
2017-09-11T17:16:06.672Z,79.97
2017-09-11T17:17:06.048Z,79.32
2017-09-11T17:18:05.410Z,79.04
2017-09-11T17:19:05.505Z,80.35
2017-09-11T17:20:06.207Z,81.88
2017-09-11T17:21:05.412Z,81.52
2017-09-11T17:22:05.566Z,81.63
2017-09-11T17:23:05.495Z,82.77
2017-09-11T17:24:05.530Z,82.27
2017-09-11T17:25:05.493Z,82.86
2017-09-11T17:26:05.526Z,82.52
2017-09-11T17:27:05.540Z,81.96
2017-09-11T17:28:05.548Z,83.38
2017-09-11T17:29:05.492Z,83.25
2017-09-11T17:30:05.519Z,82.89
2017-09-11T17:31:05.534Z,82.49
2017-09-11T17:32:06.842Z,80.05
2017-09-11T17:33:06.765Z,82.18
2017-09-11T17:34:05.462Z,81.33
2017-09-11T17:35:05.519Z,80.58
2017-09-11T17:36:06.239Z,80.76
2017-09-11T17:37:05.518Z,80.11
2017-09-11T17:38:05.606Z,81.00
2017-09-11T17:39:05.499Z,80.48
2017-09-11T17:40:05.533Z,80.83
2017-09-11T17:41:05.548Z,78.03
2017-09-11T17:42:05.576Z,79.56
2017-09-11T17:43:05.527Z,80.69
2017-09-11T17:44:05.569Z,80.25
2017-09-11T17:45:05.550Z,81.72
2017-09-11T17:46:05.516Z,80.44
2017-09-11T17:47:15.994Z,79.94
2017-09-11T17:48:05.570Z,81.15
2017-09-11T17:49:06.780Z,80.48
2017-09-11T17:50:06.238Z,80.32
2017-09-11T17:51:06.283Z,81.67
2017-09-11T17:52:05.605Z,80.90
2017-09-11T17:53:05.603Z,81.36
2017-09-11T17:54:05.568Z,82.06
2017-09-11T17:55:05.544Z,82.56
2017-09-11T17:56:05.578Z,81.70
2017-09-11T17:57:05.621Z,81.24
2017-09-11T17:58:05.565Z,82.00
2017-09-11T17:59:05.583Z,81.14
2017-09-11T18:00:05.601Z,81.33
2017-09-11T18:01:05.591Z,81.14
2017-09-11T18:02:05.645Z,80.19
2017-09-11T18:03:05.573Z,81.06
2017-09-11T18:04:06.828Z,81.79
2017-09-11T18:05:06.892Z,81.43
2017-09-11T18:06:06.984Z,81.60
2017-09-11T18:07:06.371Z,81.39
2017-09-11T18:08:05.620Z,79.46
2017-09-11T18:09:05.605Z,79.51
2017-09-11T18:10:05.644Z,79.58
2017-09-11T18:11:05.605Z,78.35
2017-09-11T18:12:05.661Z,80.34
2017-09-11T18:13:05.602Z,78.33
2017-09-11T18:14:05.654Z,81.50
2017-09-11T18:15:05.621Z,81.03
2017-09-11T18:16:05.705Z,79.69
2017-09-11T18:17:05.736Z,80.56
2017-09-11T18:18:05.640Z,80.82
2017-09-11T18:19:05.642Z,79.60
2017-09-11T18:20:05.814Z,80.16
2017-09-11T18:21:05.673Z,80.91